createdAt,value
2022-08-10T00:02:33.743Z,99.90
2022-08-10T00:10:37.916Z,99.90
2022-08-10T00:13:26.258Z,99.90
2022-08-10T00:16:13.925Z,99.90
2022-08-10T00:19:01.320Z,99.90
2022-08-10T00:22:53.013Z,99.90
2022-08-10T00:26:11.362Z,99.90
2022-08-10T00:28:58.455Z,99.90
2022-08-10T00:31:58.037Z,99.90
2022-08-10T00:34:46.686Z,99.90
2022-08-10T00:37:34.205Z,99.90
2022-08-10T00:41:36.381Z,99.90
2022-08-10T00:44:24.739Z,99.90
2022-08-10T00:47:20.719Z,99.90
2022-08-10T00:50:21.205Z,99.90
2022-08-10T00:53:08.642Z,99.90
2022-08-10T00:56:35.140Z,99.90
2022-08-10T01:05:20.165Z,99.90
2022-08-10T01:08:17.251Z,99.90
2022-08-10T01:12:37.619Z,99.90
2022-08-10T01:14:45.696Z,99.90
2022-08-10T01:17:50.145Z,99.90
2022-08-10T01:20:46.040Z,99.90
2022-08-10T01:23:57.041Z,99.90
2022-08-10T01:26:58.121Z,99.90
2022-08-10T01:34:15.561Z,99.90
2022-08-10T01:37:12.169Z,99.90
2022-08-10T01:40:03.217Z,99.90
2022-08-10T01:42:52.466Z,99.90
2022-08-10T01:45:44.912Z,99.90
2022-08-10T01:53:56.546Z,99.90
2022-08-10T01:56:45.742Z,99.90
2022-08-10T02:09:48.175Z,99.90
2022-08-10T02:12:37.679Z,99.90
2022-08-10T02:15:29.458Z,99.90
2022-08-10T02:18:18.186Z,99.90
2022-08-10T02:21:07.379Z,99.90
2022-08-10T02:24:45.438Z,99.90
2022-08-10T02:27:34.950Z,99.90
2022-08-10T02:30:23.169Z,99.90
2022-08-10T02:33:11.594Z,99.90
2022-08-10T02:36:06.035Z,99.90
2022-08-10T02:38:58.711Z,99.90
2022-08-10T02:45:12.427Z,99.90
2022-08-10T02:45:29.797Z,99.90
2022-08-10T02:48:17.456Z,99.90
2022-08-10T02:51:11.263Z,99.90
2022-08-10T02:54:06.655Z,99.90
2022-08-10T02:56:58.002Z,99.90
2022-08-10T02:59:49.169Z,99.90
2022-08-10T03:02:39.860Z,99.90
2022-08-10T03:05:27.438Z,99.90
2022-08-10T03:12:41.758Z,99.90
2022-08-10T03:15:30.770Z,99.90
2022-08-10T03:18:20.987Z,99.90
2022-08-10T03:21:11.928Z,99.90
2022-08-10T03:28:54.166Z,99.90
2022-08-10T03:31:41.870Z,99.90
2022-08-10T03:34:32.703Z,99.90
2022-08-10T03:37:20.833Z,99.90
2022-08-10T03:40:09.591Z,99.90
2022-08-10T03:42:58.058Z,99.90
2022-08-10T03:45:54.377Z,99.90
2022-08-10T03:48:49.177Z,99.90
2022-08-10T03:51:39.235Z,99.90
2022-08-10T03:54:27.646Z,99.90
2022-08-10T03:57:15.246Z,99.90
2022-08-10T04:00:02.425Z,99.90
2022-08-10T04:07:56.691Z,99.90
2022-08-10T04:10:44.183Z,99.90
2022-08-10T04:13:31.466Z,99.90
2022-08-10T04:16:18.743Z,99.90
2022-08-10T04:24:29.950Z,99.90
2022-08-10T04:27:20.346Z,99.90
2022-08-10T04:30:08.611Z,99.90
2022-08-10T04:32:57.786Z,99.90
2022-08-10T04:40:58.624Z,99.90
2022-08-10T04:43:45.892Z,99.90
2022-08-10T04:46:56.456Z,99.90
2022-08-10T04:49:54.920Z,99.90
2022-08-10T04:52:44.347Z,99.90
2022-08-10T04:55:31.627Z,99.90
2022-08-10T04:58:20.334Z,99.90
2022-08-10T05:01:07.470Z,99.90
2022-08-10T05:04:35.982Z,99.90
2022-08-10T05:07:54.135Z,99.90
2022-08-10T05:10:44.027Z,99.90
2022-08-10T05:13:32.925Z,99.90
2022-08-10T05:16:20.603Z,99.90
2022-08-10T05:20:01.377Z,99.90
2022-08-10T05:22:26.517Z,99.90
2022-08-10T05:25:15.070Z,99.90
2022-08-10T05:28:06.259Z,99.90
2022-08-10T05:30:55.067Z,99.90
2022-08-10T05:33:42.283Z,99.90
2022-08-10T05:36:29.717Z,99.90
2022-08-10T05:43:53.687Z,99.90
2022-08-10T05:46:42.427Z,99.90
2022-08-10T05:49:30.062Z,99.90
2022-08-10T05:52:18.321Z,99.90
2022-08-10T06:00:37.119Z,99.90
2022-08-10T06:03:34.598Z,99.90
2022-08-10T06:06:24.898Z,99.90
2022-08-10T06:09:13.401Z,99.90
2022-08-10T06:16:34.873Z,99.90
2022-08-10T06:19:25.207Z,99.90
2022-08-10T06:22:13.579Z,99.90
2022-08-10T06:32:36.843Z,99.90
2022-08-10T06:35:28.350Z,99.90
2022-08-10T06:38:17.708Z,99.90
2022-08-10T06:41:09.825Z,99.90
2022-08-10T06:44:01.070Z,99.90
2022-08-10T06:46:52.066Z,99.90
2022-08-10T06:49:40.159Z,99.90
2022-08-10T06:52:30.106Z,99.90
2022-08-10T06:55:18.639Z,99.90
2022-08-10T06:58:07.577Z,99.90
2022-08-10T07:01:02.952Z,99.90
2022-08-10T07:03:57.523Z,99.90
2022-08-10T07:06:47.498Z,99.90
2022-08-10T07:09:38.714Z,99.90
2022-08-10T07:12:26.998Z,99.90
2022-08-10T07:15:17.266Z,99.90
2022-08-10T07:23:57.307Z,99.90
2022-08-10T07:26:34.893Z,99.90
2022-08-10T07:29:54.148Z,99.90
2022-08-10T07:37:55.070Z,99.90
2022-08-10T07:40:44.301Z,99.90
2022-08-10T07:48:55.710Z,99.90
2022-08-10T07:51:43.892Z,99.90
2022-08-10T07:54:33.147Z,99.90
2022-08-10T07:57:30.894Z,99.90
2022-08-10T08:00:20.644Z,99.90
2022-08-10T08:03:09.351Z,99.90
2022-08-10T08:06:05.430Z,99.90
2022-08-10T08:09:00.554Z,99.90
2022-08-10T08:11:49.523Z,99.90
2022-08-10T08:14:39.937Z,99.90
2022-08-10T08:17:36.425Z,99.90
2022-08-10T08:20:25.562Z,99.90
2022-08-10T08:24:04.875Z,99.90
2022-08-10T08:26:24.143Z,99.90
2022-08-10T08:29:17.833Z,99.90
2022-08-10T08:32:06.385Z,99.90
2022-08-10T08:34:57.528Z,99.90
2022-08-10T08:38:28.853Z,99.90
2022-08-10T08:41:04.774Z,99.90
2022-08-10T08:44:05.309Z,99.90
2022-08-10T08:48:03.300Z,99.90
2022-08-10T08:50:32.320Z,99.90
2022-08-10T08:54:02.635Z,99.50
2022-08-10T08:56:50.279Z,99.70
2022-08-10T08:59:54.338Z,99.90
2022-08-10T09:02:55.753Z,97.00
2022-08-10T09:05:59.388Z,98.90
2022-08-10T09:09:25.475Z,99.20
2022-08-10T09:16:52.627Z,98.40
2022-08-10T09:19:47.535Z,98.60
2022-08-10T09:22:41.831Z,95.80
2022-08-10T09:25:35.755Z,95.50
2022-08-10T09:28:27.157Z,94.60
2022-08-10T09:31:22.581Z,96.00
2022-08-10T09:36:21.775Z,94.90
2022-08-10T09:37:58.680Z,96.20
2022-08-10T09:41:00.191Z,95.00
2022-08-10T09:43:57.566Z,93.60
2022-08-10T09:46:58.747Z,94.70
2022-08-10T09:50:06.331Z,94.90
2022-08-10T09:53:05.223Z,93.00
2022-08-10T09:56:17.717Z,91.10
2022-08-10T10:04:30.803Z,92.10
2022-08-10T10:07:27.043Z,89.90
2022-08-10T10:10:20.587Z,88.80
2022-08-10T10:13:13.313Z,89.20
2022-08-10T10:16:09.808Z,90.30
2022-08-10T10:19:08.813Z,87.00
2022-08-10T10:22:08.933Z,88.70
2022-08-10T10:25:20.807Z,87.50
2022-08-10T10:28:19.970Z,89.00
2022-08-10T10:31:16.909Z,88.80
2022-08-10T10:34:13.207Z,90.20
2022-08-10T10:37:02.309Z,88.00
2022-08-10T10:39:54.600Z,88.10
2022-08-10T10:42:50.882Z,86.90
2022-08-10T10:45:51.730Z,86.30
2022-08-10T10:48:48.783Z,86.80
2022-08-10T10:51:45.811Z,85.80
2022-08-10T10:54:42.471Z,85.40
2022-08-10T10:58:00.046Z,84.90
2022-08-10T11:00:56.690Z,87.00
2022-08-10T11:03:59.014Z,82.90
2022-08-10T11:06:58.077Z,82.40
2022-08-10T11:10:03.511Z,82.40
2022-08-10T11:13:03.004Z,85.00
2022-08-10T11:16:17.957Z,82.50
2022-08-10T11:19:11.767Z,84.90
2022-08-10T11:22:14.596Z,83.40
2022-08-10T11:25:09.221Z,81.20
2022-08-10T11:28:04.396Z,85.60
2022-08-10T11:36:17.651Z,84.90
2022-08-10T11:39:14.258Z,79.90
2022-08-10T11:42:17.358Z,80.70
2022-08-10T11:45:52.001Z,82.30
2022-08-10T11:48:53.101Z,83.90
2022-08-10T11:51:49.802Z,83.20
2022-08-10T11:54:43.143Z,81.90
2022-08-10T11:57:54.587Z,84.20
2022-08-10T12:00:41.107Z,82.70
2022-08-10T12:10:05.134Z,81.80
2022-08-10T12:11:57.811Z,81.10
2022-08-10T12:14:51.220Z,84.00
2022-08-10T12:17:50.721Z,82.30
2022-08-10T12:20:42.473Z,80.60
2022-08-10T12:23:41.215Z,81.10
2022-08-10T12:26:35.806Z,80.70
2022-08-10T12:29:28.450Z,80.40
2022-08-10T12:32:25.589Z,79.20
2022-08-10T12:35:22.635Z,83.30
2022-08-10T12:38:21.343Z,78.60
2022-08-10T12:41:18.460Z,81.20
2022-08-10T12:49:27.313Z,79.60
2022-08-10T12:52:20.423Z,80.60
2022-08-10T13:00:02.359Z,82.70
2022-08-10T13:02:50.780Z,79.20
2022-08-10T13:06:01.874Z,79.30
2022-08-10T13:09:06.355Z,82.20
2022-08-10T13:12:37.097Z,79.10
2022-08-10T13:15:45.170Z,80.00
2022-08-10T13:18:28.870Z,78.10
2022-08-10T13:21:20.093Z,80.20
2022-08-10T13:24:12.880Z,80.60
2022-08-10T13:27:25.122Z,78.20
2022-08-10T13:30:14.095Z,78.80
2022-08-10T13:38:23.177Z,78.90
2022-08-10T13:41:11.901Z,76.00
2022-08-10T13:44:01.213Z,78.30
2022-08-10T13:46:53.607Z,77.30
2022-08-10T13:49:47.931Z,77.10
2022-08-10T13:52:36.653Z,75.70
2022-08-10T13:55:29.034Z,74.30
2022-08-10T13:58:39.322Z,77.60
2022-08-10T14:01:31.565Z,77.80
2022-08-10T14:08:50.295Z,78.40
2022-08-10T14:11:41.138Z,75.50
2022-08-10T14:14:30.108Z,78.50
2022-08-10T14:17:22.004Z,76.70
2022-08-10T14:20:14.820Z,76.70
2022-08-10T14:23:05.163Z,75.60
2022-08-10T14:25:56.408Z,76.80
2022-08-10T14:28:48.773Z,74.90
2022-08-10T14:36:55.573Z,77.30
2022-08-10T14:39:46.182Z,78.40
2022-08-10T14:42:38.502Z,78.30
2022-08-10T14:45:30.055Z,77.60
2022-08-10T14:48:23.083Z,77.20
2022-08-10T14:56:33.802Z,78.40
2022-08-10T15:00:20.780Z,75.50
2022-08-10T15:02:53.165Z,79.50
2022-08-10T15:05:46.270Z,75.90
2022-08-10T15:14:29.231Z,74.20
2022-08-10T15:17:11.876Z,74.90
2022-08-10T15:20:14.304Z,74.20
2022-08-10T15:24:27.246Z,75.30
2022-08-10T15:27:19.416Z,74.80
2022-08-10T15:30:09.447Z,73.60
2022-08-10T15:33:15.001Z,75.10
2022-08-10T15:36:34.033Z,74.90
2022-08-10T15:44:39.922Z,75.40
2022-08-10T15:48:17.883Z,74.70
2022-08-10T15:56:33.250Z,74.50
2022-08-10T15:59:30.775Z,74.40
2022-08-10T16:02:25.049Z,76.00
2022-08-10T16:05:17.235Z,75.00
2022-08-10T16:08:08.213Z,76.00
2022-08-10T16:11:02.888Z,76.50
2022-08-10T16:19:22.538Z,75.30
2022-08-10T16:22:36.036Z,75.00
2022-08-10T16:25:21.134Z,74.40
2022-08-10T16:28:10.818Z,74.20
2022-08-10T16:36:07.591Z,74.50
2022-08-10T16:38:55.666Z,74.60
2022-08-10T16:42:04.183Z,76.00
2022-08-10T16:44:54.289Z,74.20
2022-08-10T16:47:48.312Z,74.80
2022-08-10T16:50:41.469Z,73.70
2022-08-10T16:53:32.801Z,74.00
2022-08-10T16:56:28.529Z,74.80
2022-08-10T16:59:20.786Z,75.20
2022-08-10T17:02:16.943Z,75.00
2022-08-10T17:09:59.015Z,75.00
2022-08-10T17:12:51.870Z,77.50
2022-08-10T17:15:42.240Z,76.50
2022-08-10T17:18:30.958Z,76.50
2022-08-10T17:21:21.607Z,76.20
2022-08-10T17:24:36.027Z,76.00
2022-08-10T17:28:13.966Z,75.40
2022-08-10T17:30:57.260Z,76.50
2022-08-10T17:33:45.545Z,76.60
2022-08-10T17:36:36.491Z,76.40
2022-08-10T17:39:29.712Z,79.40
2022-08-10T17:42:22.264Z,75.20
2022-08-10T17:45:20.786Z,76.70
2022-08-10T17:48:30.433Z,77.10
2022-08-10T17:51:18.778Z,76.90
2022-08-10T17:54:10.032Z,77.40
2022-08-10T17:58:00.740Z,77.70
2022-08-10T18:00:54.356Z,78.20
2022-08-10T18:03:44.196Z,77.90
2022-08-10T18:06:33.467Z,83.00
2022-08-10T18:09:28.663Z,90.30
2022-08-10T18:12:20.814Z,86.30
2022-08-10T18:15:39.228Z,91.30
2022-08-10T18:18:29.543Z,92.40
2022-08-10T18:21:20.919Z,92.50
2022-08-10T18:24:16.356Z,92.80
2022-08-10T18:27:05.855Z,91.70
2022-08-10T18:29:55.168Z,92.80
2022-08-10T18:32:48.922Z,92.70
2022-08-10T18:35:39.767Z,94.10
2022-08-10T18:38:28.658Z,94.30
2022-08-10T18:41:19.701Z,91.50
2022-08-10T18:45:22.886Z,94.80
2022-08-10T18:48:15.988Z,95.90
2022-08-10T18:51:06.915Z,94.50
2022-08-10T18:53:59.611Z,95.40
2022-08-10T18:56:54.925Z,95.10
2022-08-10T19:05:04.503Z,98.00
2022-08-10T19:08:31.296Z,97.50
2022-08-10T19:11:34.806Z,98.30
2022-08-10T19:14:33.997Z,98.70
2022-08-10T19:18:38.833Z,98.70
2022-08-10T19:21:33.016Z,98.30
2022-08-10T19:24:27.255Z,99.90
2022-08-10T19:27:30.722Z,99.90
2022-08-10T19:30:20.105Z,99.80
2022-08-10T19:33:20.679Z,99.90
2022-08-10T19:41:32.352Z,99.90
2022-08-10T19:44:43.488Z,99.40
2022-08-10T19:47:36.661Z,99.50
2022-08-10T19:50:30.068Z,99.30
2022-08-10T19:53:27.467Z,96.70
2022-08-10T19:56:35.042Z,95.70
2022-08-10T20:00:15.246Z,95.00
2022-08-10T20:03:00.622Z,94.70
2022-08-10T20:06:14.499Z,94.80
2022-08-10T20:09:12.908Z,94.90
2022-08-10T20:16:35.121Z,95.00
2022-08-10T20:19:53.044Z,95.20
2022-08-10T20:22:46.546Z,95.20
2022-08-10T20:25:34.691Z,95.30
2022-08-10T20:33:39.380Z,95.40
2022-08-10T20:36:31.732Z,95.70
2022-08-10T20:39:28.612Z,95.80
2022-08-10T20:42:21.873Z,96.00
2022-08-10T20:45:21.044Z,96.60
2022-08-10T20:48:19.739Z,96.90
2022-08-10T20:51:12.734Z,97.30
2022-08-10T20:54:05.590Z,97.80
2022-08-10T20:57:56.338Z,97.80
2022-08-10T21:00:23.947Z,98.30
2022-08-10T21:08:35.068Z,98.50
2022-08-10T21:11:35.642Z,98.70
2022-08-10T21:14:36.183Z,98.90
2022-08-10T21:17:41.901Z,98.90
2022-08-10T21:23:58.497Z,99.00
2022-08-10T21:26:59.190Z,99.10
2022-08-10T21:30:00.261Z,99.10
2022-08-10T21:32:56.616Z,99.20
2022-08-10T21:35:48.576Z,99.10
2022-08-10T21:38:47.274Z,99.10
2022-08-10T21:42:02.171Z,99.30
2022-08-10T21:45:16.985Z,99.40
2022-08-10T21:48:32.983Z,99.60
2022-08-10T21:56:11.536Z,99.60
2022-08-10T21:59:23.767Z,99.70
2022-08-10T22:02:32.061Z,99.90
2022-08-10T22:05:42.664Z,99.90
2022-08-10T22:13:35.777Z,99.90
2022-08-10T22:16:51.292Z,99.90
2022-08-10T22:20:01.050Z,99.90
2022-08-10T22:23:20.479Z,99.90
2022-08-10T22:31:24.559Z,99.10
2022-08-10T22:31:47.762Z,99.90
2022-08-10T22:35:21.659Z,99.90
2022-08-10T22:38:38.623Z,99.90
2022-08-10T22:41:51.062Z,99.90
2022-08-10T22:45:52.722Z,99.90
2022-08-10T22:49:02.147Z,99.90
2022-08-10T22:51:54.386Z,99.90
2022-08-10T22:55:06.700Z,99.90
2022-08-10T22:58:11.469Z,99.90
2022-08-10T23:01:02.646Z,99.90
2022-08-10T23:03:53.163Z,99.90
2022-08-10T23:06:41.398Z,99.90
2022-08-10T23:09:30.210Z,99.90
2022-08-10T23:12:23.390Z,99.90
2022-08-10T23:15:38.694Z,99.90
2022-08-10T23:23:47.793Z,99.90
2022-08-10T23:26:36.291Z,99.90
2022-08-10T23:29:24.885Z,99.90
2022-08-10T23:33:37.398Z,99.90
2022-08-10T23:36:51.630Z,99.90
2022-08-10T23:39:44.545Z,99.90
2022-08-10T23:42:38.613Z,99.90
2022-08-10T23:45:28.781Z,99.90
2022-08-10T23:48:38.832Z,99.90
2022-08-10T23:57:00.700Z,99.90
